Terminal Aerodrome Forecast
Issued by NWS

Home | Current Version | Previous Version | Text Only | Print | Product List | Glossary On
Versions: 1 2 3 4 5 6 7 8 9 10 11 12 13
633
FTUS46 KSGX 260520
TAFSNA
TAF
KSNA 260520Z 2606/2706 25007KT P6SM SKC WS015/05020KT
     FM261100 VRB04KT P6SM SKC WS015/09020KT
     FM261700 VRB04KT P6SM SKC
     FM261930 25010KT P6SM SKC
     FM270200 VRB05KT P6SM SCT120=

USA.gov is the U.S. government's official web portal to all federal, state and local government web resources and services.